Flight Track Log - Related Links

Times and Time Zones

All times are in EDT time to prevent confusion due to time zone crossing. See the JIA2328 flight status page for this flight to view local times or setup timezone preferences in your user account.

Time Position Orientation Groundspeed Altitude Reporting Facility
EDT Latitude Longitude Course Direction KTS MPH feet Rate Location/Type
Tue 05:57:03 PM 35.1928 -80.9331 106° East 159 183 1,500  Level Atlanta Center
Tue 05:57:27 PM 35.1719 -80.9339 182° South 160 184 2,300 2,047 Climbing Atlanta Center
Tue 05:58:28 PM 35.1228 -80.8875 142° Southeast 269 310 4,400 2,124 Climbing Atlanta Center
Tue 05:59:00 PM 35.1000 -80.6332 109° East  Level FlightAware Approximate
Tue 05:59:20 PM 35.1106 -80.8169 102° East 291 335 6,300  Level Atlanta Center
Tue 06:00:00 PM 35.0667 -80.5112 90° East  Level FlightAware Approximate
Tue 06:00:20 PM 35.0911 -80.7136 103° East 308 354 7,900  Level Atlanta Center
Tue 06:01:00 PM 35.0399 -80.3870 106° East  Level FlightAware Approximate
Tue 06:01:20 PM 35.0717 -80.6103 103° East 314 361 10,400  Level Atlanta Center
Tue 06:02:00 PM 35.0104 -80.2633 106° East  Level FlightAware Approximate
Tue 06:03:00 PM 35.0347 -80.4064 102° East 352 405 13,400  Level Washington Center
Tue 06:03:58 PM 35.0125 -80.2833 102° East 366 421 15,100 1,462 Climbing Washington Center
Tue 06:04:59 PM 34.9919 -80.1681 102° East 378 435 16,300 1,091 Climbing Washington Center
Tue 06:05:59 PM 34.9578 -80.0217 106° East 393 452 17,300 966 Climbing Washington Center
Tue 06:06:57 PM 34.9375 -79.8864 100° East 406 467 18,200 857 Climbing Washington Center
Tue 06:07:58 PM 34.9458 -79.7753 85° East 400 460 19,000 397 Climbing Washington Center
Tue 06:08:58 PM 34.9489 -79.6233 89° East 400 460 19,000 -248 Level Washington Center
Tue 06:09:59 PM 34.9561 -79.4642 87° East 418 481 18,500 -694 Descending Washington Center
Tue 06:10:59 PM 34.9628 -79.3200 87° East 418 481 17,600 -1,050 Descending Washington Center
Tue 06:11:59 PM 34.9694 -79.1758 87° East 418 481 16,400 -793 Descending Washington Center
Tue 06:13:00 PM 34.9778 -79.0317 86° East 418 481 16,000 -203 Descending Washington Center
Tue 06:13:57 PM 34.9839 -78.8925 87° East 418 481 16,000  Level Washington Center
Tue 06:14:58 PM 34.9708 -78.7578 97° East 413 475 16,000 -149 Level Washington Center
Tue 06:15:58 PM 34.9514 -78.6175 100° East 413 475 15,700 -934 Descending Washington Center
Tue 06:17:00 PM 34.9361 -78.4753 97° East 413 475 14,100 -1,600 Descending Washington Center
Tue 06:17:58 PM 34.9186 -78.3403 99° East 408 470 12,500 -1,780 Descending Washington Center
Tue 06:18:58 PM 34.9025 -78.2131 99° East 395 455 10,600 -1,525 Descending Washington Center
Tue 06:20:00 PM 34.8903 -78.1014 98° East 362 417 9,400 -1,613 Descending Washington Center
Tue 06:20:57 PM 34.8778 -77.9997 98° East 326 375 7,400 -2,034 Descending Washington Center
Tue 06:21:58 PM 34.8694 -77.9033 96° East 301 346 5,400 -1,934 Descending Washington Center
Tue 06:22:58 PM 34.8564 -77.8144 100° East 282 325 3,500 -1,200 Descending Washington Center
Tue 06:23:58 PM 34.8453 -77.7381 100° East 251 289 3,000 -541 Descending Washington Center
Tue 06:25:00 PM 34.8381 -77.6722 98° East 215 247 2,400 -581 Descending Washington Center

Login

Don't have an account? Register now (free) for customized features, flight alerts, and more!